createdAt,value
2022-08-07T00:01:44.730Z,96519.13
2022-08-07T00:06:29.512Z,96522.91
2022-08-07T00:11:35.640Z,96521.56
2022-08-07T00:16:52.401Z,96523.00
2022-08-07T00:21:57.361Z,96530.78
2022-08-07T00:27:07.392Z,96530.63
2022-08-07T00:32:13.472Z,96519.38
2022-08-07T00:37:17.423Z,96516.78
2022-08-07T00:42:19.085Z,96510.22
2022-08-07T00:48:07.916Z,96518.31
2022-08-07T00:52:53.804Z,96512.94
2022-08-07T00:57:56.741Z,96516.72
2022-08-07T01:02:58.617Z,96508.22
2022-08-07T01:08:00.385Z,96515.19
2022-08-07T01:13:02.767Z,96513.38
2022-08-07T01:18:05.861Z,96514.03
2022-08-07T01:23:13.919Z,96508.69
2022-08-07T01:28:17.086Z,96512.53
2022-08-07T01:33:22.594Z,96510.72
2022-08-07T01:38:29.293Z,96519.66
2022-08-07T01:43:38.485Z,96509.94
2022-08-07T01:48:46.794Z,96519.25
2022-08-07T01:54:12.341Z,96521.38
2022-08-07T01:59:30.904Z,96502.16
2022-08-07T02:04:56.377Z,96500.34
2022-08-07T02:10:03.778Z,96491.75
2022-08-07T02:15:12.764Z,96491.41
2022-08-07T02:20:23.473Z,96486.75
2022-08-07T02:26:10.688Z,96484.13
2022-08-07T02:30:55.387Z,96489.44
2022-08-07T02:36:30.778Z,96487.28
2022-08-07T02:41:22.138Z,96480.66
2022-08-07T02:46:31.522Z,96478.41
2022-08-07T02:51:42.510Z,96471.75
2022-08-07T02:56:55.068Z,96468.28
2022-08-07T03:02:02.931Z,96463.16
2022-08-07T03:07:18.117Z,96455.38
2022-08-07T03:12:30.794Z,96462.13
2022-08-07T03:17:53.608Z,96458.63
2022-08-07T03:22:58.713Z,96456.38
2022-08-07T03:28:09.631Z,96462.00
2022-08-07T03:33:24.481Z,96460.16
2022-08-07T03:38:36.438Z,96459.09
2022-08-07T03:43:44.032Z,96464.78
2022-08-07T03:49:03.201Z,96462.56
2022-08-07T03:54:35.171Z,96465.47
2022-08-07T03:59:32.985Z,96461.25
2022-08-07T04:04:35.153Z,96466.16
2022-08-07T04:09:45.505Z,96466.63
2022-08-07T04:14:58.377Z,96465.59
2022-08-07T04:20:05.171Z,96471.97
2022-08-07T04:25:12.596Z,96472.38
2022-08-07T04:30:35.663Z,96469.59
2022-08-07T04:35:50.593Z,96471.59
2022-08-07T04:40:56.503Z,96479.03
2022-08-07T04:47:07.573Z,96480.19
2022-08-07T04:52:51.259Z,96479.69
2022-08-07T04:58:34.934Z,96478.78
2022-08-07T05:04:06.725Z,96486.97
2022-08-07T05:09:42.918Z,96493.91
2022-08-07T05:14:59.078Z,96491.81
2022-08-07T05:20:09.482Z,96488.91
2022-08-07T05:25:36.485Z,96488.31
2022-08-07T05:30:39.846Z,96486.97
2022-08-07T05:35:43.075Z,96484.84
2022-08-07T05:40:50.575Z,96490.66
2022-08-07T05:45:57.240Z,96475.88
2022-08-07T05:56:06.908Z,96477.22
2022-08-07T06:01:16.856Z,96480.16
2022-08-07T06:06:24.316Z,96489.09
2022-08-07T06:11:34.127Z,96488.94
2022-08-07T06:16:38.790Z,96483.63
2022-08-07T06:22:14.256Z,96488.53
2022-08-07T06:27:05.822Z,96480.41
2022-08-07T06:32:09.516Z,96479.81
2022-08-07T06:37:17.224Z,96475.22
2022-08-07T06:42:38.152Z,96480.59
2022-08-07T06:47:56.978Z,96479.19
2022-08-07T06:53:04.279Z,96475.69
2022-08-07T06:58:11.081Z,96480.56
2022-08-07T07:03:48.640Z,96479.84
2022-08-07T07:08:49.398Z,96478.78
2022-08-07T07:13:58.741Z,96480.06
2022-08-07T07:19:37.295Z,96472.53
2022-08-07T07:24:28.680Z,96475.69
2022-08-07T07:29:39.812Z,96474.16
2022-08-07T07:35:04.054Z,96475.75
2022-08-07T07:40:14.972Z,96467.44
2022-08-07T07:45:19.284Z,96465.44
2022-08-07T07:50:33.518Z,96456.66
2022-08-07T07:55:45.767Z,96458.31
2022-08-07T08:00:58.558Z,96468.19
2022-08-07T08:06:01.627Z,96454.75
2022-08-07T08:11:06.004Z,96453.94
2022-08-07T08:16:18.135Z,96457.78
2022-08-07T08:21:59.085Z,96445.38
2022-08-07T08:27:09.591Z,96440.88
2022-08-07T08:32:18.600Z,96432.13
2022-08-07T08:38:01.388Z,96430.88
2022-08-07T08:43:04.710Z,96427.56
2022-08-07T08:48:46.806Z,96426.22
2022-08-07T08:54:11.018Z,96420.56
2022-08-07T08:59:18.392Z,96420.47
2022-08-07T09:04:55.139Z,96417.16
2022-08-07T09:10:08.925Z,96415.78
2022-08-07T09:16:20.232Z,96407.28
2022-08-07T09:21:06.387Z,96406.72
2022-08-07T09:26:39.457Z,96413.69
2022-08-07T09:32:18.733Z,96406.00
2022-08-07T09:37:53.567Z,96408.66
2022-08-07T09:43:40.166Z,96407.25
2022-08-07T09:50:01.671Z,96399.47
2022-08-07T09:54:54.605Z,96389.69
2022-08-07T10:00:05.481Z,96381.78
2022-08-07T10:06:00.305Z,96373.47
2022-08-07T10:11:59.542Z,96373.59
2022-08-07T10:16:59.727Z,96365.59
2022-08-07T10:22:36.592Z,96363.06
2022-08-07T10:27:57.824Z,96360.06
2022-08-07T10:33:03.332Z,96357.81
2022-08-07T10:38:48.362Z,96349.50
2022-08-07T10:44:07.879Z,96336.03
2022-08-07T10:49:49.398Z,96339.19
2022-08-07T10:55:26.566Z,96337.34
2022-08-07T11:01:11.710Z,96340.09
2022-08-07T11:06:21.955Z,96331.09
2022-08-07T11:12:02.455Z,96336.34
2022-08-07T11:17:23.193Z,96319.72
2022-08-07T11:23:11.681Z,96320.72
2022-08-07T11:28:25.349Z,96314.22
2022-08-07T11:33:58.575Z,96304.19
2022-08-07T11:39:10.309Z,96308.13
2022-08-07T11:44:52.627Z,96291.03
2022-08-07T11:50:30.247Z,96295.66
2022-08-07T11:56:14.036Z,96293.72
2022-08-07T12:02:00.951Z,96303.75
2022-08-07T12:07:27.092Z,96288.09
2022-08-07T12:12:37.909Z,96283.03
2022-08-07T12:17:59.036Z,96277.03
2022-08-07T12:23:21.391Z,96273.25
2022-08-07T12:29:03.858Z,96275.88
2022-08-07T12:34:11.254Z,96279.50
2022-08-07T12:39:42.516Z,96267.22
2022-08-07T12:44:42.868Z,96262.25
2022-08-07T12:50:38.218Z,96252.91
2022-08-07T12:56:02.417Z,96257.97
2022-08-07T13:01:23.182Z,96249.38
2022-08-07T13:06:54.250Z,96241.44
2022-08-07T13:12:56.465Z,96239.63
2022-08-07T13:18:11.039Z,96233.13
2022-08-07T13:24:00.578Z,96238.97
2022-08-07T13:29:13.082Z,96228.16
2022-08-07T13:34:35.860Z,96218.44
2022-08-07T13:40:35.610Z,96217.56
2022-08-07T13:46:12.526Z,96209.28
2022-08-07T13:51:01.214Z,96195.47
2022-08-07T13:56:05.539Z,96184.19
2022-08-07T14:01:13.580Z,96174.34
2022-08-07T14:06:16.061Z,96181.78
2022-08-07T14:11:22.975Z,96187.03
2022-08-07T14:16:32.408Z,96174.09
2022-08-07T14:22:04.027Z,96165.75
2022-08-07T14:28:11.041Z,96168.31
2022-08-07T14:32:54.521Z,96160.97
2022-08-07T14:38:05.801Z,96166.41
2022-08-07T14:48:37.506Z,96160.31
2022-08-07T14:54:08.747Z,96157.00
2022-08-07T14:59:13.985Z,96155.94
2022-08-07T15:04:33.534Z,96157.78
2022-08-07T15:09:59.696Z,96150.34
2022-08-07T15:20:55.172Z,96151.06
2022-08-07T15:25:59.501Z,96149.78
2022-08-07T15:31:06.450Z,96131.06
2022-08-07T15:36:09.538Z,96137.22
2022-08-07T15:46:49.916Z,96139.50
2022-08-07T15:57:00.739Z,96132.34
2022-08-07T16:02:04.197Z,96135.41
2022-08-07T16:08:30.695Z,96123.13
2022-08-07T16:13:04.747Z,96126.22
2022-08-07T16:18:49.534Z,96119.09
2022-08-07T16:24:34.531Z,96114.47
2022-08-07T16:30:30.248Z,96113.97
2022-08-07T16:35:51.528Z,96115.00
2022-08-07T16:41:17.417Z,96127.53
2022-08-07T16:52:51.908Z,96118.56
2022-08-07T16:58:01.700Z,96122.66
2022-08-07T17:03:58.473Z,96130.28
2022-08-07T17:09:13.827Z,96127.69
2022-08-07T17:14:23.686Z,96131.25
2022-08-07T17:20:02.033Z,96133.47
2022-08-07T17:25:16.462Z,96130.06
2022-08-07T17:30:20.511Z,96137.16
2022-08-07T17:35:54.713Z,96132.25
2022-08-07T17:42:01.195Z,96133.75
2022-08-07T17:46:54.909Z,96153.91
2022-08-07T17:52:10.610Z,96144.44
2022-08-07T17:57:58.679Z,96147.47
2022-08-07T18:03:00.822Z,96152.28
2022-08-07T18:08:23.906Z,96160.13
2022-08-07T18:13:51.130Z,96157.94
2022-08-07T18:21:02.912Z,96163.19
2022-08-07T18:24:40.971Z,96164.59
2022-08-07T18:30:30.659Z,96162.63
2022-08-07T18:35:57.417Z,96167.09
2022-08-07T18:41:16.928Z,96171.34
2022-08-07T18:46:32.032Z,96177.84
2022-08-07T18:52:52.938Z,96190.00
2022-08-07T18:58:14.406Z,96199.75
2022-08-07T19:03:37.466Z,96196.78
2022-08-07T19:08:55.701Z,96212.72
2022-08-07T19:14:51.909Z,96225.03
2022-08-07T19:20:03.470Z,96247.75
2022-08-07T19:26:22.607Z,96240.41
2022-08-07T19:31:04.084Z,96255.50
2022-08-07T19:36:00.088Z,96253.75
2022-08-07T19:41:02.692Z,96260.41
2022-08-07T19:46:10.212Z,96258.22
2022-08-07T19:51:20.053Z,96259.25
2022-08-07T19:58:01.692Z,96263.84
2022-08-07T20:01:57.839Z,96260.84
2022-08-07T20:07:01.165Z,96264.19
2022-08-07T20:12:34.923Z,96260.88
2022-08-07T20:17:27.020Z,96261.13
2022-08-07T20:22:33.924Z,96267.22
2022-08-07T20:27:45.964Z,96263.72
2022-08-07T20:32:53.945Z,96267.81
2022-08-07T20:37:59.627Z,96272.56
2022-08-07T20:43:09.735Z,96276.94
2022-08-07T20:48:30.304Z,96265.53
2022-08-07T20:54:03.984Z,96261.34
2022-08-07T20:59:05.184Z,96260.31
2022-08-07T21:04:22.799Z,96256.78
2022-08-07T21:09:53.274Z,96255.28
2022-08-07T21:15:03.232Z,96256.06
2022-08-07T21:20:09.821Z,96265.25
2022-08-07T21:25:20.576Z,96258.41
2022-08-07T21:30:32.884Z,96252.06
2022-08-07T21:36:05.906Z,96254.41
2022-08-07T21:41:24.713Z,96256.41
2022-08-07T21:46:40.891Z,96248.38
2022-08-07T21:52:09.051Z,96261.06
2022-08-07T21:57:44.549Z,96258.59
2022-08-07T22:03:17.197Z,96259.66
2022-08-07T22:08:56.992Z,96259.19
2022-08-07T22:14:05.188Z,96257.78
2022-08-07T22:19:29.452Z,96252.06
2022-08-07T22:24:37.639Z,96254.97
2022-08-07T22:29:54.445Z,96255.13
2022-08-07T22:35:02.110Z,96257.63
2022-08-07T22:40:13.170Z,96263.81
2022-08-07T22:46:21.406Z,96258.69
2022-08-07T22:51:22.053Z,96269.66
2022-08-07T22:56:47.412Z,96274.16
2022-08-07T23:02:22.214Z,96279.25
2022-08-07T23:07:41.790Z,96272.25
2022-08-07T23:13:07.476Z,96278.56
2022-08-07T23:18:42.423Z,96277.63
2022-08-07T23:24:11.842Z,96280.69
2022-08-07T23:30:35.938Z,96282.53
2022-08-07T23:35:22.932Z,96289.69
2022-08-07T23:40:53.024Z,96276.97
2022-08-07T23:46:14.061Z,96278.16
2022-08-07T23:53:16.958Z,96276.88
2022-08-07T23:56:54.906Z,96285.16
